createdAt,value
2024-02-13T00:03:16.630Z,3.20
2024-02-13T00:08:45.274Z,1.63
2024-02-13T00:14:10.792Z,1.05
2024-02-13T00:19:32.750Z,1.98
2024-02-13T00:24:54.591Z,1.65
2024-02-13T00:30:16.457Z,1.38
2024-02-13T00:35:38.353Z,3.10
2024-02-13T00:41:04.223Z,1.35
2024-02-13T00:46:26.135Z,2.17
2024-02-13T00:51:48.186Z,1.70
2024-02-13T00:57:10.385Z,1.33
2024-02-13T01:02:32.409Z,1.25
2024-02-13T01:07:54.871Z,1.30
2024-02-13T01:13:17.203Z,1.80
2024-02-13T01:18:39.106Z,1.92
2024-02-13T01:24:00.988Z,1.55
2024-02-13T01:29:23.076Z,1.67
2024-02-13T01:34:45.161Z,1.70
2024-02-13T01:40:07.751Z,0.93
2024-02-13T01:45:29.871Z,1.52
2024-02-13T01:50:52.224Z,1.50
2024-02-13T01:56:14.363Z,0.50
2024-02-13T02:01:38.130Z,1.65
2024-02-13T02:07:00.042Z,0.75
2024-02-13T02:12:22.198Z,1.25
2024-02-13T02:17:54.392Z,1.52
2024-02-13T02:23:16.359Z,0.82
2024-02-13T02:28:38.716Z,1.50
2024-02-13T02:34:01.004Z,1.90
2024-02-13T02:39:22.913Z,1.65
2024-02-13T02:44:45.127Z,0.70
2024-02-13T02:50:07.153Z,0.88
2024-02-13T02:55:30.628Z,1.23
2024-02-13T03:00:53.652Z,1.25
2024-02-13T03:06:15.702Z,1.42
2024-02-13T03:11:39.061Z,1.23
2024-02-13T03:17:00.976Z,0.90
2024-02-13T03:22:22.877Z,1.10
2024-02-13T03:27:44.771Z,1.02
2024-02-13T03:33:06.951Z,2.00
2024-02-13T03:38:29.058Z,0.73
2024-02-13T03:43:51.031Z,2.63
2024-02-13T03:49:13.063Z,0.45
2024-02-13T03:54:35.149Z,1.13
2024-02-13T03:59:57.058Z,1.20
2024-02-13T04:05:19.021Z,0.73
2024-02-13T04:10:41.155Z,0.63
2024-02-13T04:16:03.039Z,1.05
2024-02-13T04:21:24.992Z,3.70
2024-02-13T04:26:46.982Z,0.70
2024-02-13T04:32:08.845Z,1.05
2024-02-13T04:37:30.734Z,0.65
2024-02-13T04:42:52.602Z,0.68
2024-02-13T04:48:14.769Z,0.85
2024-02-13T04:53:36.901Z,0.98
2024-02-13T04:58:58.737Z,0.75
2024-02-13T05:04:20.614Z,0.85
2024-02-13T05:09:42.615Z,1.10
2024-02-13T05:15:06.908Z,0.40
2024-02-13T05:20:28.751Z,0.45
2024-02-13T05:25:50.640Z,0.50
2024-02-13T05:31:12.986Z,0.68
2024-02-13T05:36:34.857Z,1.15
2024-02-13T05:41:57.431Z,0.68
2024-02-13T05:47:19.936Z,0.55
2024-02-13T05:52:42.424Z,0.50
2024-02-13T05:58:04.711Z,0.85
2024-02-13T06:03:26.614Z,0.50
2024-02-13T06:08:48.629Z,2.05
2024-02-13T06:14:10.521Z,2.28
2024-02-13T06:19:32.421Z,4.03
2024-02-13T06:24:54.359Z,3.95
2024-02-13T06:30:17.828Z,3.15
2024-02-13T06:35:41.215Z,6.88
2024-02-13T06:41:06.972Z,5.18
2024-02-13T06:46:28.971Z,1.88
2024-02-13T06:51:50.810Z,2.28
2024-02-13T06:57:12.975Z,4.15
2024-02-13T07:02:35.454Z,4.57
2024-02-13T07:07:57.472Z,5.68
2024-02-13T07:13:19.576Z,5.07
2024-02-13T07:18:43.638Z,4.68
2024-02-13T07:24:05.962Z,3.05
2024-02-13T07:29:27.885Z,2.42
2024-02-13T07:34:49.815Z,5.00
2024-02-13T07:40:14.704Z,1.80
2024-02-13T07:45:36.571Z,3.20
2024-02-13T07:50:59.280Z,2.78
2024-02-13T07:56:26.527Z,0.93
2024-02-13T08:01:48.454Z,4.35
2024-02-13T08:07:10.769Z,2.55
2024-02-13T08:12:33.151Z,3.38
2024-02-13T08:17:55.142Z,2.60
2024-02-13T08:23:17.087Z,5.55
2024-02-13T08:28:39.477Z,6.47
2024-02-13T08:34:04.342Z,1.83
2024-02-13T08:39:26.373Z,1.40
2024-02-13T08:44:48.347Z,1.85
2024-02-13T08:50:10.738Z,2.38
2024-02-13T08:55:32.663Z,5.03
2024-02-13T09:00:54.567Z,2.90
2024-02-13T09:06:18.378Z,2.47
2024-02-13T09:11:40.850Z,5.05
2024-02-13T09:17:02.846Z,3.08
2024-02-13T09:22:24.751Z,3.75
2024-02-13T09:27:49.746Z,3.80
2024-02-13T09:33:11.990Z,10.48
2024-02-13T09:38:34.009Z,10.13
2024-02-13T09:43:57.074Z,6.57
2024-02-13T09:49:19.401Z,10.13
2024-02-13T09:54:45.761Z,8.18
2024-02-13T10:00:11.523Z,7.32
2024-02-13T10:05:34.417Z,6.35
2024-02-13T10:11:17.817Z,9.45
2024-02-13T10:16:39.987Z,7.18
2024-02-13T10:22:09.010Z,8.32
2024-02-13T10:27:31.195Z,5.88
2024-02-13T10:32:53.743Z,6.28
2024-02-13T10:38:24.106Z,3.35
2024-02-13T10:43:47.880Z,5.10
2024-02-13T10:49:26.217Z,4.80
2024-02-13T10:54:50.298Z,4.35
2024-02-13T11:00:16.242Z,4.50
2024-02-13T11:05:38.659Z,4.57
2024-02-13T11:11:08.419Z,2.85
2024-02-13T11:16:35.252Z,3.28
2024-02-13T11:21:57.534Z,4.93
2024-02-13T11:27:29.593Z,5.32
2024-02-13T11:33:03.429Z,5.43
2024-02-13T11:38:27.625Z,2.70
2024-02-13T11:43:49.869Z,3.30
2024-02-13T11:49:12.482Z,3.55
2024-02-13T11:54:35.712Z,2.83
2024-02-13T12:00:01.836Z,5.78
2024-02-13T12:05:26.627Z,2.28
2024-02-13T12:10:53.771Z,1.35
2024-02-13T12:16:16.002Z,2.30
2024-02-13T12:21:40.767Z,2.58
2024-02-13T12:27:03.514Z,2.63
2024-02-13T12:32:27.084Z,1.58
2024-02-13T12:43:17.483Z,2.15
2024-02-13T12:48:44.325Z,2.45
2024-02-13T12:54:08.527Z,1.45
2024-02-13T12:59:30.564Z,3.75
2024-02-13T13:04:53.793Z,3.22
2024-02-13T13:10:18.311Z,1.23
2024-02-13T13:15:42.261Z,2.00
2024-02-13T13:21:04.632Z,3.63
2024-02-13T13:26:34.146Z,3.22
2024-02-13T13:31:56.811Z,1.73
2024-02-13T13:37:18.681Z,1.35
2024-02-13T13:42:44.744Z,2.38
2024-02-13T13:48:17.085Z,1.13
2024-02-13T13:53:41.643Z,1.60
2024-02-13T13:59:05.132Z,2.30
2024-02-13T14:04:27.784Z,0.90
2024-02-13T14:09:49.595Z,0.70
2024-02-13T14:15:11.908Z,1.30
2024-02-13T14:20:39.048Z,0.80
2024-02-13T14:26:00.982Z,0.45
2024-02-13T14:31:22.962Z,1.25
2024-02-13T14:36:46.505Z,1.58
2024-02-13T14:42:10.031Z,1.13
2024-02-13T14:47:33.161Z,1.20
2024-02-13T14:52:55.103Z,1.63
2024-02-13T14:58:26.030Z,0.75
2024-02-13T15:09:23.351Z,0.70
2024-02-13T15:14:45.377Z,1.50
2024-02-13T15:20:08.460Z,1.38
2024-02-13T15:25:31.657Z,0.80
2024-02-13T15:30:54.509Z,1.25
2024-02-13T15:36:38.656Z,1.02
2024-02-13T15:42:19.130Z,1.20
2024-02-13T15:47:41.173Z,1.33
2024-02-13T15:53:04.509Z,0.75
2024-02-13T15:58:27.570Z,0.68
2024-02-13T16:03:49.472Z,1.45
2024-02-13T16:09:13.639Z,2.15
2024-02-13T16:14:35.735Z,1.35
2024-02-13T16:19:58.911Z,1.48
2024-02-13T16:25:20.882Z,2.95
2024-02-13T16:30:45.041Z,1.42
2024-02-13T16:36:07.931Z,2.63
2024-02-13T16:41:29.914Z,3.50
2024-02-13T16:46:52.583Z,3.22
2024-02-13T16:52:14.632Z,4.05
2024-02-13T16:57:41.564Z,4.00
2024-02-13T17:03:06.412Z,3.50
2024-02-13T17:08:28.606Z,2.83
2024-02-13T17:13:50.773Z,7.18
2024-02-13T17:19:15.580Z,3.85
2024-02-13T17:24:41.181Z,5.10
2024-02-13T17:30:06.653Z,5.53
2024-02-13T17:35:33.725Z,3.53
2024-02-13T17:40:55.871Z,4.45
2024-02-13T17:46:17.786Z,6.47
2024-02-13T17:51:39.613Z,5.57
2024-02-13T17:57:03.153Z,9.30
2024-02-13T18:02:25.283Z,4.93
2024-02-13T18:07:47.136Z,8.05
2024-02-13T18:13:12.075Z,6.85
2024-02-13T18:18:34.276Z,4.43
2024-02-13T18:23:59.770Z,5.07
2024-02-13T18:29:23.696Z,6.20
2024-02-13T18:34:46.548Z,4.80
2024-02-13T18:40:09.753Z,4.57
2024-02-13T18:45:34.828Z,4.05
2024-02-13T18:50:56.710Z,3.38
2024-02-13T18:56:19.661Z,3.65
2024-02-13T19:01:41.623Z,2.67
2024-02-13T19:07:03.808Z,2.70
2024-02-13T19:12:25.934Z,4.45
2024-02-13T19:17:48.384Z,3.88
2024-02-13T19:23:10.421Z,5.60
2024-02-13T19:28:32.806Z,6.60
2024-02-13T19:33:55.722Z,5.50
2024-02-13T19:39:17.673Z,9.73
2024-02-13T19:44:39.654Z,3.83
2024-02-13T19:50:02.593Z,6.57
2024-02-13T19:55:25.350Z,3.50
2024-02-13T20:00:47.345Z,2.72
2024-02-13T20:06:09.812Z,4.10
2024-02-13T20:11:31.910Z,4.35
2024-02-13T20:16:54.043Z,5.30
2024-02-13T20:22:16.090Z,6.07
2024-02-13T20:27:38.186Z,3.25
2024-02-13T20:33:01.623Z,5.05
2024-02-13T20:38:23.695Z,2.75
2024-02-13T20:43:45.872Z,3.88
2024-02-13T20:49:09.692Z,2.15
2024-02-13T20:54:32.801Z,5.90
2024-02-13T20:59:55.003Z,2.80
2024-02-13T21:05:16.901Z,5.82
2024-02-13T21:10:38.747Z,4.82
2024-02-13T21:16:01.213Z,5.13
2024-02-13T21:21:41.964Z,4.80
2024-02-13T21:27:04.391Z,5.03
2024-02-13T21:32:26.392Z,2.15
2024-02-13T21:37:48.643Z,3.38
2024-02-13T21:43:10.657Z,1.05
2024-02-13T21:48:32.613Z,9.07
2024-02-13T21:53:54.641Z,2.17
2024-02-13T21:59:16.610Z,4.25
2024-02-13T22:04:39.412Z,1.88
2024-02-13T22:10:01.539Z,3.53
2024-02-13T22:15:23.561Z,1.65
2024-02-13T22:20:45.595Z,1.67
2024-02-13T22:26:07.465Z,1.17
2024-02-13T22:31:31.278Z,0.98
2024-02-13T22:36:55.955Z,2.42
2024-02-13T22:42:17.983Z,3.10
2024-02-13T22:47:40.683Z,1.20
2024-02-13T22:53:04.369Z,0.55
2024-02-13T22:58:26.260Z,0.77
2024-02-13T23:03:48.329Z,2.38
2024-02-13T23:09:18.375Z,1.10
2024-02-13T23:14:41.881Z,1.48
2024-02-13T23:20:04.758Z,1.38
2024-02-13T23:25:30.291Z,0.55
2024-02-13T23:36:14.060Z,0.93
2024-02-13T23:41:36.125Z,0.47
2024-02-13T23:46:57.989Z,0.57
2024-02-13T23:52:19.823Z,0.63
2024-02-13T23:57:41.997Z,0.93
